Time;durP1;ratioP1;P1;durP2;ratioP2;P2;SDS_P1;SDS_P2;PMS_P1;PMS_P2;Temp;Humidity;BMP_temperature;BMP_pressure;BME280_temperature;BME280_humidity;BME280_pressure;Samples;Min_cycle;Max_cycle;Signal;HPM_P1;HPM_P2
2022/02/13 00:01:34;;;;;;;18.02;9.18;;;-1.20;99.90;;;;;;5039644;28;20040;-93
2022/02/13 00:04:00;;;;;;;21.48;9.55;;;-1.20;99.90;;;;;;5040366;28;20521;-93
2022/02/13 00:06:26;;;;;;;19.38;9.65;;;-1.20;99.90;;;;;;5049878;28;20049;-93
2022/02/13 00:08:53;;;;;;;20.83;10.18;;;-1.20;99.90;;;;;;5056394;28;20075;-93
2022/02/13 00:11:19;;;;;;;21.33;9.63;;;-1.20;99.90;;;;;;5057589;28;20025;-94
2022/02/13 00:13:46;;;;;;;21.38;8.75;;;-1.20;99.90;;;;;;5056709;28;20516;-93
2022/02/13 00:16:11;;;;;;;17.30;9.02;;;-1.20;99.90;;;;;;5056293;28;20060;-94
2022/02/13 00:18:38;;;;;;;20.10;9.65;;;-1.30;99.90;;;;;;5056070;28;20131;-94
2022/02/13 00:21:04;;;;;;;17.25;9.32;;;-1.30;99.90;;;;;;5055931;28;20036;-94
2022/02/13 00:23:30;;;;;;;18.13;10.10;;;-1.30;99.90;;;;;;5056040;28;20029;-94
2022/02/13 00:25:56;;;;;;;23.38;9.77;;;-1.30;99.90;;;;;;5056068;28;20463;-95
2022/02/13 00:28:21;;;;;;;17.65;9.05;;;-1.40;99.90;;;;;;5056741;28;20092;-95
2022/02/13 00:30:48;;;;;;;19.75;8.88;;;-1.30;99.90;;;;;;5055661;28;20079;-95
2022/02/13 00:33:14;;;;;;;16.27;8.82;;;-1.30;99.90;;;;;;5055773;28;20441;-95
2022/02/13 00:35:41;;;;;;;15.20;9.00;;;-1.30;99.90;;;;;;5055778;28;20513;-95
2022/02/13 00:38:08;;;;;;;16.05;8.70;;;-1.30;99.90;;;;;;5056256;28;20025;-96
2022/02/13 00:40:35;;;;;;;19.08;8.48;;;-1.30;99.90;;;;;;5055693;28;20368;-96
2022/02/13 00:43:01;;;;;;;14.40;8.43;;;-1.30;99.90;;;;;;5056326;28;20025;-96
2022/02/13 00:45:27;;;;;;;16.90;9.30;;;-1.30;99.90;;;;;;5055502;28;20528;-96
2022/02/13 00:47:52;;;;;;;18.08;8.50;;;-1.30;99.90;;;;;;5055935;28;20017;-95
2022/02/13 00:50:18;;;;;;;15.90;8.88;;;-1.40;99.90;;;;;;5055840;28;20021;-96
2022/02/13 00:52:44;;;;;;;17.08;9.10;;;-1.40;99.90;;;;;;5055240;28;20167;-96
2022/02/13 00:55:10;;;;;;;15.02;8.20;;;-1.40;99.90;;;;;;5055224;28;20070;-95
2022/02/13 00:57:36;;;;;;;15.70;8.35;;;-1.40;99.90;;;;;;5055910;28;20021;-96
2022/02/13 01:00:04;;;;;;;15.15;8.60;;;-1.50;99.90;;;;;;5055422;28;20382;-96
2022/02/13 01:02:30;;;;;;;22.10;10.25;;;-1.50;99.90;;;;;;5055273;28;20452;-96
2022/02/13 01:04:55;;;;;;;21.23;10.00;;;-1.60;99.90;;;;;;5054017;28;20057;-95
2022/02/13 01:07:21;;;;;;;24.75;11.20;;;-1.60;99.90;;;;;;5019934;28;20044;-96
2022/02/13 01:09:47;;;;;;;29.83;14.27;;;-1.70;99.90;;;;;;5018913;28;20024;-96
2022/02/13 01:12:13;;;;;;;29.98;13.70;;;-1.70;99.90;;;;;;5020332;28;20018;-96
2022/02/13 01:14:39;;;;;;;25.65;13.00;;;-1.80;99.90;;;;;;5021904;28;20017;-96
2022/02/13 01:17:05;;;;;;;32.47;13.88;;;-1.90;99.90;;;;;;5021940;28;20525;-96
2022/02/13 01:19:30;;;;;;;28.73;13.70;;;-1.90;99.90;;;;;;5024050;28;20021;-96
2022/02/13 01:21:58;;;;;;;30.75;14.23;;;-2.00;99.90;;;;;;5024225;28;20036;-96
2022/02/13 01:24:24;;;;;;;34.42;14.32;;;-2.10;99.90;;;;;;5027505;28;20025;-96
2022/02/13 01:26:54;;;;;;;31.08;13.77;;;-2.20;99.90;;;;;;5029841;28;20029;-96
2022/02/13 01:29:23;;;;;;;31.33;14.05;;;-2.20;99.90;;;;;;5051292;28;20052;-96
2022/02/13 01:31:56;;;;;;;23.52;12.30;;;-2.30;99.90;;;;;;5017359;28;20030;-96
2022/02/13 01:34:43;;;;;;;28.15;13.07;;;-2.40;99.90;;;;;;5021078;28;20037;-96
2022/02/13 01:37:23;;;;;;;29.13;12.73;;;-2.50;99.90;;;;;;5052076;28;20041;-96
2022/02/13 01:40:17;;;;;;;30.40;14.18;;;-2.60;99.90;;;;;;5036640;28;20051;-96
2022/02/13 01:43:07;;;;;;;26.52;12.65;;;-2.60;99.90;;;;;;5053642;28;20029;-96
2022/02/13 01:45:48;;;;;;;24.75;12.07;;;-2.60;99.90;;;;;;5027414;28;20033;-96
2022/02/13 01:48:37;;;;;;;30.88;13.30;;;-2.70;99.90;;;;;;5052080;28;20040;-96
2022/02/13 01:51:04;;;;;;;30.73;15.20;;;-2.70;99.90;;;;;;5014949;28;20032;-96
2022/02/13 01:53:31;;;;;;;38.33;16.38;;;-2.70;99.90;;;;;;5031370;28;20463;-96
2022/02/13 01:56:00;;;;;;;35.53;17.65;;;-2.80;99.90;;;;;;5015776;28;20034;-96
2022/02/13 01:58:29;;;;;;;36.55;17.75;;;-2.70;99.90;;;;;;5014477;28;20056;-96
2022/02/13 02:01:11;;;;;;;;;;;;;;;;;;;;;
2022/02/13 02:03:58;;;;;;;38.28;18.13;;;-2.70;99.90;;;;;;5039704;28;20068;-96
2022/02/13 02:06:50;;;;;;;40.10;17.88;;;-2.60;99.90;;;;;;5021193;28;20050;-96
2022/02/13 02:13:08;;;;;;;36.70;16.60;;;-2.50;99.90;;;;;;4977239;28;20037;-96
2022/02/13 02:16:31;;;;;;;37.75;16.42;;;-2.50;99.90;;;;;;4956012;28;20040;-96
2022/02/13 02:23:40;;;;;;;31.17;15.27;;;-2.60;99.90;;;;;;4978824;28;20054;-96
2022/02/13 02:27:27;;;;;;;34.55;16.02;;;-2.70;99.90;;;;;;4937231;29;20104;-96
2022/02/13 03:46:53;;;;;;;54.03;22.70;;;-3.30;99.90;;;;;;5443219;23;20047;-96
2022/02/13 03:49:52;;;;;;;54.58;23.02;;;-3.30;99.90;;;;;;4972157;29;20066;-96
2022/02/13 03:55:53;;;;;;;59.13;24.40;;;-3.20;99.90;;;;;;4934548;29;20569;-96
2022/02/13 03:59:22;;;;;;;54.10;22.23;;;-3.10;99.90;;;;;;4920809;29;20047;-96
2022/02/13 04:02:02;;;;;;;42.92;18.85;;;-3.10;99.90;;;;;;4920311;29;20041;-96
2022/02/13 04:15:16;;;;;;;40.63;17.52;;;-3.10;99.90;;;;;;4813734;29;20042;-96
2022/02/13 04:18:51;;;;;;;;;;;;;;;;;;;;;
2022/02/13 04:25:01;;;;;;;;;;;;;;;;;;;;;
2022/02/13 04:28:27;;;;;;;42.60;21.08;;;-3.20;99.90;;;;;;4810715;30;20050;-96
2022/02/13 04:31:54;;;;;;;36.08;18.13;;;-3.20;99.90;;;;;;4801263;29;20023;-96
2022/02/13 04:35:35;;;;;;;36.33;19.30;;;-3.20;99.90;;;;;;4756396;30;20025;-96
2022/02/13 06:05:19;;;;;;;31.80;13.60;;;-2.20;99.90;;;;;;4989264;28;20162;-96
2022/02/13 06:08:00;;;;;;;38.85;18.00;;;-2.10;99.90;;;;;;4956612;28;20039;-95
2022/02/13 06:10:26;;;;;;;77.75;35.60;;;-2.10;99.90;;;;;;4960029;28;20480;-95
2022/02/13 06:12:52;;;;;;;39.05;20.25;;;-2.00;99.90;;;;;;4960056;28;20126;-96
2022/02/13 06:15:20;;;;;;;31.77;15.98;;;-2.00;99.90;;;;;;4959087;28;20054;-96
2022/02/13 06:17:46;;;;;;;27.42;13.43;;;-1.90;99.90;;;;;;4959265;28;20061;-96
2022/02/13 06:20:15;;;;;;;29.80;15.15;;;-1.90;99.90;;;;;;4962123;28;20023;-96
2022/02/13 06:22:41;;;;;;;27.77;15.40;;;-1.90;99.90;;;;;;4960091;28;20081;-96
2022/02/13 06:25:07;;;;;;;24.98;13.57;;;-1.80;99.90;;;;;;4958994;28;20030;-96
2022/02/13 06:27:33;;;;;;;25.63;13.43;;;-1.80;99.90;;;;;;4958931;28;20031;-96
2022/02/13 06:29:59;;;;;;;28.88;14.45;;;-1.70;99.90;;;;;;4958931;28;20362;-96
2022/02/13 06:32:27;;;;;;;34.00;14.27;;;-1.60;99.90;;;;;;4958916;28;20029;-96
2022/02/13 06:34:53;;;;;;;32.22;16.58;;;-1.60;99.90;;;;;;4958898;28;20018;-96
2022/02/13 06:37:18;;;;;;;36.42;17.00;;;-1.50;99.90;;;;;;4958400;28;20122;-96
2022/02/13 06:39:59;;;;;;;49.28;20.98;;;-1.50;99.90;;;;;;4959570;28;20030;-96
2022/02/13 06:42:30;;;;;;;56.95;25.15;;;-1.40;99.90;;;;;;4959702;28;20042;-95
2022/02/13 06:44:56;;;;;;;36.88;17.45;;;-1.30;99.90;;;;;;4959646;28;20027;-96
2022/02/13 06:53:28;;;;;;;26.70;13.90;;;-1.20;99.90;;;;;;4978604;28;20106;-96
2022/02/13 06:58:52;;;;;;;27.05;12.65;;;-1.10;99.90;;;;;;4977833;28;20058;-95
2022/02/13 07:01:17;;;;;;;30.30;14.15;;;-1.00;99.90;;;;;;4958318;28;20092;-96
2022/02/13 07:03:52;;;;;;;34.55;16.45;;;-1.00;99.90;;;;;;4958811;28;20081;-96
2022/02/13 07:06:18;;;;;;;39.28;17.27;;;-0.90;99.90;;;;;;4958308;28;20031;-96
2022/02/13 16:02:56;;;;;;;27.63;10.77;;;-1.30;99.90;;;;;;5166143;27;20416;-90
2022/02/13 16:05:46;;;;;;;38.53;15.48;;;-1.30;99.90;;;;;;5131392;27;20032;-90
2022/02/13 16:08:12;;;;;;;;;;;-1.40;99.90;;;;;;5123744;28;20098;-91
2022/02/13 16:10:37;;;;;;;25.35;10.27;;;-1.40;99.90;;;;;;5131773;27;19951;-91
2022/02/13 16:13:22;;;;;;;35.30;12.45;;;-1.40;99.90;;;;;;5131981;27;20033;-92
2022/02/13 16:15:50;;;;;;;26.67;10.65;;;-1.40;99.90;;;;;;5122848;28;20030;-92
2022/02/13 16:18:16;;;;;;;23.48;11.68;;;-1.40;99.90;;;;;;5131300;27;20102;-92
2022/02/13 16:20:42;;;;;;;20.02;10.80;;;-1.40;99.90;;;;;;5130809;27;20111;-91
2022/02/13 16:26:00;;;;;;;26.35;13.35;;;-1.40;99.90;;;;;;5134400;28;20427;-91
2022/02/13 19:03:06;;;;;;;146.60;43.70;;;-1.80;99.90;;;;;;5160649;23;20051;-96
2022/02/13 19:56:32;;;;;;;49.70;22.77;;;-1.80;99.90;;;;;;6058769;23;21061;-96
2022/02/13 19:58:59;;;;;;;43.42;20.98;;;-1.80;99.90;;;;;;4921151;29;20043;-96
2022/02/13 20:05:13;;;;;;;73.85;28.73;;;-1.80;99.90;;;;;;4944749;29;20050;-96
